sensor_id;sensor_type;location;lat;lon;timestamp;pressure;altitude;pressure_sealevel;temperature;humidity
66196;BME280;53000;45.182;5.736;2023-07-09T00:01:50;99504.09;;;29.69;44.34
66196;BME280;53000;45.182;5.736;2023-07-09T00:04:17;99501.88;;;29.66;44.18
66196;BME280;53000;45.182;5.736;2023-07-09T00:06:42;99495.47;;;29.65;44.06
66196;BME280;53000;45.182;5.736;2023-07-09T00:09:16;99502.16;;;29.64;43.84
66196;BME280;53000;45.182;5.736;2023-07-09T00:11:43;99504.41;;;29.62;44.21
66196;BME280;53000;45.182;5.736;2023-07-09T00:14:10;99509.72;;;29.59;44.78
66196;BME280;53000;45.182;5.736;2023-07-09T00:16:37;99510.31;;;29.55;44.48
66196;BME280;53000;45.182;5.736;2023-07-09T00:19:13;99509.78;;;29.53;43.85
66196;BME280;53000;45.182;5.736;2023-07-09T00:21:41;99513.97;;;29.51;45.17
66196;BME280;53000;45.182;5.736;2023-07-09T00:24:07;99509.00;;;29.43;45.02
66196;BME280;53000;45.182;5.736;2023-07-09T00:26:36;99511.53;;;29.39;44.89
66196;BME280;53000;45.182;5.736;2023-07-09T00:29:03;99518.53;;;29.36;45.13
66196;BME280;53000;45.182;5.736;2023-07-09T00:31:29;99515.19;;;29.34;44.65
66196;BME280;53000;45.182;5.736;2023-07-09T00:33:54;99512.72;;;29.33;44.80
66196;BME280;53000;45.182;5.736;2023-07-09T00:36:29;99519.69;;;29.30;44.21
66196;BME280;53000;45.182;5.736;2023-07-09T00:38:57;99516.94;;;29.25;44.60
66196;BME280;53000;45.182;5.736;2023-07-09T00:41:25;99511.94;;;29.22;44.43
66196;BME280;53000;45.182;5.736;2023-07-09T00:43:51;99518.06;;;29.19;44.49
66196;BME280;53000;45.182;5.736;2023-07-09T00:48:52;99529.00;;;29.10;44.63
66196;BME280;53000;45.182;5.736;2023-07-09T00:51:20;99529.22;;;29.09;44.99
66196;BME280;53000;45.182;5.736;2023-07-09T00:53:49;99525.34;;;29.05;45.03
66196;BME280;53000;45.182;5.736;2023-07-09T00:56:25;99534.56;;;29.00;45.19
66196;BME280;53000;45.182;5.736;2023-07-09T00:58:54;99530.69;;;28.96;45.37
66196;BME280;53000;45.182;5.736;2023-07-09T01:01:21;99537.13;;;28.91;45.74
66196;BME280;53000;45.182;5.736;2023-07-09T01:03:58;99534.59;;;28.90;45.42
66196;BME280;53000;45.182;5.736;2023-07-09T01:06:32;99532.13;;;28.88;46.92
66196;BME280;53000;45.182;5.736;2023-07-09T01:09:01;99527.41;;;28.84;46.28
66196;BME280;53000;45.182;5.736;2023-07-09T01:11:27;99533.25;;;28.82;46.00
66196;BME280;53000;45.182;5.736;2023-07-09T01:13:54;99531.56;;;28.81;46.23
66196;BME280;53000;45.182;5.736;2023-07-09T01:16:23;99527.97;;;28.81;46.26
66196;BME280;53000;45.182;5.736;2023-07-09T01:18:51;99531.56;;;28.81;47.11
66196;BME280;53000;45.182;5.736;2023-07-09T01:21:17;99531.56;;;28.81;46.37
66196;BME280;53000;45.182;5.736;2023-07-09T01:23:43;99532.44;;;28.82;46.94
66196;BME280;53000;45.182;5.736;2023-07-09T01:26:14;99534.66;;;28.80;46.69
66196;BME280;53000;45.182;5.736;2023-07-09T01:28:41;99527.69;;;28.77;46.72
66196;BME280;53000;45.182;5.736;2023-07-09T01:31:12;99525.22;;;28.75;46.99
66196;BME280;53000;45.182;5.736;2023-07-09T01:33:39;99522.16;;;28.72;47.49
66196;BME280;53000;45.182;5.736;2023-07-09T01:36:06;99526.34;;;28.69;47.31
66196;BME280;53000;45.182;5.736;2023-07-09T01:38:32;99529.41;;;28.68;46.82
66196;BME280;53000;45.182;5.736;2023-07-09T01:40:58;99534.69;;;28.64;46.92
66196;BME280;53000;45.182;5.736;2023-07-09T01:43:24;99524.41;;;28.60;47.07
66196;BME280;53000;45.182;5.736;2023-07-09T01:45:50;99523.03;;;28.57;47.15
66196;BME280;53000;45.182;5.736;2023-07-09T01:48:17;99528.63;;;28.52;46.80
66196;BME280;53000;45.182;5.736;2023-07-09T01:50:43;99535.84;;;28.48;46.87
66196;BME280;53000;45.182;5.736;2023-07-09T01:53:13;99533.91;;;28.43;47.35
66196;BME280;53000;45.182;5.736;2023-07-09T01:55:39;99536.94;;;28.42;47.70
66196;BME280;53000;45.182;5.736;2023-07-09T01:58:05;99536.13;;;28.41;47.11
66196;BME280;53000;45.182;5.736;2023-07-09T02:00:33;99540.31;;;28.39;46.94
66196;BME280;53000;45.182;5.736;2023-07-09T02:03:00;99544.22;;;28.32;47.46
66196;BME280;53000;45.182;5.736;2023-07-09T02:05:30;99539.75;;;28.26;47.53
66196;BME280;53000;45.182;5.736;2023-07-09T02:07:55;99547.28;;;28.26;47.78
66196;BME280;53000;45.182;5.736;2023-07-09T02:10:21;99542.25;;;28.23;47.75
66196;BME280;53000;45.182;5.736;2023-07-09T02:12:47;99542.25;;;28.23;47.94
66196;BME280;53000;45.182;5.736;2023-07-09T02:15:13;99544.22;;;28.22;47.76
66196;BME280;53000;45.182;5.736;2023-07-09T02:17:38;99544.75;;;28.19;47.92
66196;BME280;53000;45.182;5.736;2023-07-09T02:20:04;99540.59;;;28.17;48.03
66196;BME280;53000;45.182;5.736;2023-07-09T02:22:31;99545.34;;;28.16;48.53
66196;BME280;53000;45.182;5.736;2023-07-09T02:24:57;99540.91;;;28.15;48.18
66196;BME280;53000;45.182;5.736;2023-07-09T02:27:22;99549.25;;;28.15;47.52
66196;BME280;53000;45.182;5.736;2023-07-09T02:29:48;99553.97;;;28.14;47.90
66196;BME280;53000;45.182;5.736;2023-07-09T02:32:20;99548.41;;;28.09;47.96
66196;BME280;53000;45.182;5.736;2023-07-09T02:34:46;99547.28;;;28.05;48.36
66196;BME280;53000;45.182;5.736;2023-07-09T02:37:19;99557.00;;;27.98;47.68
66196;BME280;53000;45.182;5.736;2023-07-09T02:39:45;99556.47;;;27.90;48.54
66196;BME280;53000;45.182;5.736;2023-07-09T02:42:12;99551.69;;;27.81;48.65
66196;BME280;53000;45.182;5.736;2023-07-09T02:44:40;99553.63;;;27.70;48.97
66196;BME280;53000;45.182;5.736;2023-07-09T02:47:06;99552.22;;;27.62;49.43
66196;BME280;53000;45.182;5.736;2023-07-09T02:49:31;99545.56;;;27.58;49.03
66196;BME280;53000;45.182;5.736;2023-07-09T02:51:57;99552.19;;;27.57;49.13
66196;BME280;53000;45.182;5.736;2023-07-09T02:54:22;99555.28;;;27.56;49.50
66196;BME280;53000;45.182;5.736;2023-07-09T02:56:47;99549.16;;;27.53;49.74
66196;BME280;53000;45.182;5.736;2023-07-09T02:59:13;99559.72;;;27.51;49.66
66196;BME280;53000;45.182;5.736;2023-07-09T03:01:39;99553.03;;;27.47;49.46
66196;BME280;53000;45.182;5.736;2023-07-09T03:04:04;99557.47;;;27.48;49.22
66196;BME280;53000;45.182;5.736;2023-07-09T03:06:31;99555.53;;;27.49;49.09
66196;BME280;53000;45.182;5.736;2023-07-09T03:09:00;99552.47;;;27.50;48.95
66196;BME280;53000;45.182;5.736;2023-07-09T03:11:28;99561.66;;;27.51;48.88
66196;BME280;53000;45.182;5.736;2023-07-09T03:13:54;99566.38;;;27.50;48.97
66196;BME280;53000;45.182;5.736;2023-07-09T03:16:19;99568.06;;;27.51;49.09
66196;BME280;53000;45.182;5.736;2023-07-09T03:18:45;99564.44;;;27.51;49.25
66196;BME280;53000;45.182;5.736;2023-07-09T03:21:10;99555.00;;;27.52;49.24
66196;BME280;53000;45.182;5.736;2023-07-09T03:23:35;99561.66;;;27.51;49.39
66196;BME280;53000;45.182;5.736;2023-07-09T03:26:01;99560.81;;;27.50;49.65
66196;BME280;53000;45.182;5.736;2023-07-09T03:28:26;99562.19;;;27.48;49.85
66196;BME280;53000;45.182;5.736;2023-07-09T03:30:54;99564.41;;;27.46;49.22
66196;BME280;53000;45.182;5.736;2023-07-09T03:33:20;99564.16;;;27.42;49.48
66196;BME280;53000;45.182;5.736;2023-07-09T03:35:45;99567.19;;;27.41;49.37
66196;BME280;53000;45.182;5.736;2023-07-09T03:38:11;99563.03;;;27.38;49.46
66196;BME280;53000;45.182;5.736;2023-07-09T03:40:37;99563.56;;;27.35;50.01
66196;BME280;53000;45.182;5.736;2023-07-09T03:43:04;99569.38;;;27.33;50.50
66196;BME280;53000;45.182;5.736;2023-07-09T03:45:30;99568.56;;;27.33;49.67
66196;BME280;53000;45.182;5.736;2023-07-09T03:47:55;99563.28;;;27.31;49.71
66196;BME280;53000;45.182;5.736;2023-07-09T03:50:21;99569.94;;;27.30;49.21
66196;BME280;53000;45.182;5.736;2023-07-09T03:52:47;99566.59;;;27.28;49.40
66196;BME280;53000;45.182;5.736;2023-07-09T03:55:12;99574.34;;;27.21;49.10
66196;BME280;53000;45.182;5.736;2023-07-09T03:57:38;99580.41;;;27.13;49.54
66196;BME280;53000;45.182;5.736;2023-07-09T04:00:04;99582.88;;;27.04;49.52
66196;BME280;53000;45.182;5.736;2023-07-09T04:02:30;99577.56;;;26.98;50.11
66196;BME280;53000;45.182;5.736;2023-07-09T04:04:56;99580.59;;;26.96;49.76
66196;BME280;53000;45.182;5.736;2023-07-09T04:07:22;99581.69;;;26.90;49.95
66196;BME280;53000;45.182;5.736;2023-07-09T04:09:47;99584.69;;;26.83;50.19
66196;BME280;53000;45.182;5.736;2023-07-09T04:12:13;99579.66;;;26.75;49.91
66196;BME280;53000;45.182;5.736;2023-07-09T04:14:38;99577.13;;;26.68;50.45
66196;BME280;53000;45.182;5.736;2023-07-09T04:17:05;99579.88;;;26.63;50.44
66196;BME280;53000;45.182;5.736;2023-07-09T04:19:31;99579.88;;;26.63;50.80
66196;BME280;53000;45.182;5.736;2023-07-09T04:21:56;99585.69;;;26.62;49.96
66196;BME280;53000;45.182;5.736;2023-07-09T04:24:22;99589.84;;;26.59;50.14
66196;BME280;53000;45.182;5.736;2023-07-09T04:26:47;99595.66;;;26.58;50.68
66196;BME280;53000;45.182;5.736;2023-07-09T04:29:13;99588.94;;;26.53;51.00
66196;BME280;53000;45.182;5.736;2023-07-09T04:31:40;99591.97;;;26.52;50.91
66196;BME280;53000;45.182;5.736;2023-07-09T04:34:06;99599.72;;;26.50;51.30
66196;BME280;53000;45.182;5.736;2023-07-09T04:36:31;99589.47;;;26.50;50.65
66196;BME280;53000;45.182;5.736;2023-07-09T04:38:57;99587.84;;;26.55;51.06
66196;BME280;53000;45.182;5.736;2023-07-09T04:41:22;99594.56;;;26.59;50.95
66196;BME280;53000;45.182;5.736;2023-07-09T04:43:48;99585.44;;;26.63;51.39
66196;BME280;53000;45.182;5.736;2023-07-09T04:46:14;99584.31;;;26.64;50.68
66196;BME280;53000;45.182;5.736;2023-07-09T04:48:39;99584.63;;;26.68;50.96
66196;BME280;53000;45.182;5.736;2023-07-09T04:51:05;99582.16;;;26.71;50.08
66196;BME280;53000;45.182;5.736;2023-07-09T04:53:30;99574.34;;;26.73;50.73
66196;BME280;53000;45.182;5.736;2023-07-09T04:55:56;99575.75;;;26.71;51.01
66196;BME280;53000;45.182;5.736;2023-07-09T04:58:21;99569.63;;;26.69;51.11
66196;BME280;53000;45.182;5.736;2023-07-09T05:00:47;99585.13;;;26.65;51.62
66196;BME280;53000;45.182;5.736;2023-07-09T05:03:13;99581.28;;;26.66;50.82
66196;BME280;53000;45.182;5.736;2023-07-09T05:05:45;99584.06;;;26.66;50.74
66196;BME280;53000;45.182;5.736;2023-07-09T05:08:12;99584.56;;;26.63;50.13
66196;BME280;53000;45.182;5.736;2023-07-09T05:10:41;99576.78;;;26.60;50.32
66196;BME280;53000;45.182;5.736;2023-07-09T05:13:07;99582.59;;;26.58;51.78
66196;BME280;53000;45.182;5.736;2023-07-09T05:15:32;99574.56;;;26.57;50.17
66196;BME280;53000;45.182;5.736;2023-07-09T05:17:58;99574.47;;;26.51;50.51
66196;BME280;53000;45.182;5.736;2023-07-09T05:20:23;99577.50;;;26.50;50.78
66196;BME280;53000;45.182;5.736;2023-07-09T05:22:50;99581.16;;;26.50;50.25
66196;BME280;53000;45.182;5.736;2023-07-09T05:25:15;99573.91;;;26.49;51.01
66196;BME280;53000;45.182;5.736;2023-07-09T05:27:40;99570.56;;;26.47;50.61
66196;BME280;53000;45.182;5.736;2023-07-09T05:30:06;99574.47;;;26.46;50.47
66196;BME280;53000;45.182;5.736;2023-07-09T05:32:32;99575.59;;;26.50;50.90
66196;BME280;53000;45.182;5.736;2023-07-09T05:34:58;99580.84;;;26.52;50.31
66196;BME280;53000;45.182;5.736;2023-07-09T05:37:23;99582.53;;;26.53;50.62
66196;BME280;53000;45.182;5.736;2023-07-09T05:39:48;99581.78;;;26.58;50.32
66196;BME280;53000;45.182;5.736;2023-07-09T05:42:14;99578.44;;;26.61;50.51
66196;BME280;53000;45.182;5.736;2023-07-09T05:44:39;99577.09;;;26.63;50.85
66196;BME280;53000;45.182;5.736;2023-07-09T05:47:04;99582.38;;;26.65;50.83
66196;BME280;53000;45.182;5.736;2023-07-09T05:49:30;99579.59;;;26.65;50.40
66196;BME280;53000;45.182;5.736;2023-07-09T05:51:55;99580.22;;;26.72;50.68
66196;BME280;53000;45.182;5.736;2023-07-09T05:54:21;99579.13;;;26.78;50.56
66196;BME280;53000;45.182;5.736;2023-07-09T05:56:46;99577.19;;;26.84;50.38
66196;BME280;53000;45.182;5.736;2023-07-09T05:59:12;99586.41;;;26.89;50.28
66196;BME280;53000;45.182;5.736;2023-07-09T06:01:37;99582.81;;;26.94;50.43
66196;BME280;53000;45.182;5.736;2023-07-09T06:04:03;99576.72;;;26.97;50.49
66196;BME280;53000;45.182;5.736;2023-07-09T06:06:28;99583.69;;;27.00;50.26
66196;BME280;53000;45.182;5.736;2023-07-09T06:08:54;99578.97;;;27.05;50.23
66196;BME280;53000;45.182;5.736;2023-07-09T06:11:19;99582.63;;;27.11;50.51
66196;BME280;53000;45.182;5.736;2023-07-09T06:13:46;99577.38;;;27.15;50.12
66196;BME280;53000;45.182;5.736;2023-07-09T06:16:13;99581.53;;;27.17;49.85
66196;BME280;53000;45.182;5.736;2023-07-09T06:18:38;99577.94;;;27.17;50.50
66196;BME280;53000;45.182;5.736;2023-07-09T06:21:04;99578.28;;;27.25;49.99
66196;BME280;53000;45.182;5.736;2023-07-09T06:23:30;99589.97;;;27.32;50.29
66196;BME280;53000;45.182;5.736;2023-07-09T06:25:56;99580.78;;;27.37;50.18
66196;BME280;53000;45.182;5.736;2023-07-09T06:28:23;99581.94;;;27.41;49.96
66196;BME280;53000;45.182;5.736;2023-07-09T06:30:49;99586.13;;;27.49;50.33
66196;BME280;53000;45.182;5.736;2023-07-09T06:33:17;99582.78;;;27.52;48.51
66196;BME280;53000;45.182;5.736;2023-07-09T06:35:51;99583.06;;;27.50;48.23
66196;BME280;53000;45.182;5.736;2023-07-09T06:38:17;99587.25;;;27.53;48.13
66196;BME280;53000;45.182;5.736;2023-07-09T06:40:43;99581.44;;;27.60;47.32
66196;BME280;53000;45.182;5.736;2023-07-09T06:43:09;99588.09;;;27.59;47.03
66196;BME280;53000;45.182;5.736;2023-07-09T06:45:34;99585.56;;;27.57;46.93
66196;BME280;53000;45.182;5.736;2023-07-09T06:48:01;99591.47;;;27.66;46.58
66196;BME280;53000;45.182;5.736;2023-07-09T06:50:26;99586.19;;;27.74;45.38
66196;BME280;53000;45.182;5.736;2023-07-09T06:52:52;99597.03;;;27.81;45.65
66196;BME280;53000;45.182;5.736;2023-07-09T06:55:18;99591.50;;;27.86;44.84
66196;BME280;53000;45.182;5.736;2023-07-09T06:57:43;99599.59;;;27.93;44.84
66196;BME280;53000;45.182;5.736;2023-07-09T07:00:09;99599.03;;;28.01;45.24
66196;BME280;53000;45.182;5.736;2023-07-09T07:02:35;99607.94;;;28.08;45.35
66196;BME280;53000;45.182;5.736;2023-07-09T07:05:00;99602.38;;;28.19;44.75
66196;BME280;53000;45.182;5.736;2023-07-09T07:07:26;99598.50;;;28.25;44.72
66196;BME280;53000;45.182;5.736;2023-07-09T07:09:51;99593.47;;;28.32;44.01
66196;BME280;53000;45.182;5.736;2023-07-09T07:12:28;99590.13;;;28.40;44.16
66196;BME280;53000;45.182;5.736;2023-07-09T07:14:54;99589.59;;;28.48;43.82
66196;BME280;53000;45.182;5.736;2023-07-09T07:17:19;99592.09;;;28.55;44.12
66196;BME280;53000;45.182;5.736;2023-07-09T07:19:45;99599.06;;;28.63;44.29
66196;BME280;53000;45.182;5.736;2023-07-09T07:22:10;99599.03;;;28.73;43.76
66196;BME280;53000;45.182;5.736;2023-07-09T07:24:36;99603.22;;;28.75;43.88
66196;BME280;53000;45.182;5.736;2023-07-09T07:27:01;99604.59;;;28.78;43.69
66196;BME280;53000;45.182;5.736;2023-07-09T07:29:26;99601.50;;;28.85;43.64
66196;BME280;53000;45.182;5.736;2023-07-09T07:31:53;99595.13;;;29.49;43.33
66196;BME280;53000;45.182;5.736;2023-07-09T07:34:19;99601.19;;;31.28;40.40
66196;BME280;53000;45.182;5.736;2023-07-09T07:36:44;99591.28;;;33.10;38.47
66196;BME280;53000;45.182;5.736;2023-07-09T07:39:09;99603.06;;;35.20;35.19
66196;BME280;53000;45.182;5.736;2023-07-09T07:41:35;99597.19;;;37.09;34.43
66196;BME280;53000;45.182;5.736;2023-07-09T07:44:00;99591.16;;;38.20;31.98
66196;BME280;53000;45.182;5.736;2023-07-09T07:46:26;99597.72;;;38.91;31.00
66196;BME280;53000;45.182;5.736;2023-07-09T07:48:51;99595.78;;;39.53;30.61
66196;BME280;53000;45.182;5.736;2023-07-09T07:51:16;99599.31;;;40.03;28.35
66196;BME280;53000;45.182;5.736;2023-07-09T07:53:42;99602.84;;;40.40;27.07
66196;BME280;53000;45.182;5.736;2023-07-09T07:56:07;99600.72;;;40.81;27.43
66196;BME280;53000;45.182;5.736;2023-07-09T07:58:34;99592.88;;;41.22;26.50
66196;BME280;53000;45.182;5.736;2023-07-09T08:00:59;99589.88;;;41.66;27.17
66196;BME280;53000;45.182;5.736;2023-07-09T08:03:25;99591.78;;;41.98;25.98
66196;BME280;53000;45.182;5.736;2023-07-09T08:05:51;99588.03;;;42.33;27.44
66196;BME280;53000;45.182;5.736;2023-07-09T08:08:17;99585.38;;;42.63;25.66
66196;BME280;53000;45.182;5.736;2023-07-09T08:10:42;99586.69;;;42.88;25.36
66196;BME280;53000;45.182;5.736;2023-07-09T08:13:08;99587.84;;;43.10;24.94
66196;BME280;53000;45.182;5.736;2023-07-09T08:15:34;99590.66;;;43.30;24.42
66196;BME280;53000;45.182;5.736;2023-07-09T08:18:00;99589.47;;;43.61;24.20
66196;BME280;53000;45.182;5.736;2023-07-09T08:20:25;99587.34;;;44.12;23.41
66196;BME280;53000;45.182;5.736;2023-07-09T08:22:50;99587.84;;;44.55;22.97
66196;BME280;53000;45.182;5.736;2023-07-09T08:25:16;99577.94;;;44.82;22.30
66196;BME280;53000;45.182;5.736;2023-07-09T08:27:41;99584.19;;;44.99;21.19
66196;BME280;53000;45.182;5.736;2023-07-09T08:30:07;99586.72;;;45.04;21.11
66196;BME280;53000;45.182;5.736;2023-07-09T08:32:32;99591.47;;;44.89;21.42
66196;BME280;53000;45.182;5.736;2023-07-09T08:34:58;99585.16;;;44.73;19.42
66196;BME280;53000;45.182;5.736;2023-07-09T08:37:23;99593.69;;;44.65;21.15
66196;BME280;53000;45.182;5.736;2023-07-09T08:39:48;99592.16;;;44.79;20.88
66196;BME280;53000;45.182;5.736;2023-07-09T08:42:20;99590.88;;;44.73;20.83
66196;BME280;53000;45.182;5.736;2023-07-09T08:45:47;99584.53;;;44.15;20.46
66196;BME280;53000;45.182;5.736;2023-07-09T08:48:04;99590.06;;;43.21;20.25
66196;BME280;53000;45.182;5.736;2023-07-09T08:50:41;99581.88;;;42.93;19.35
66196;BME280;53000;45.182;5.736;2023-07-09T08:53:33;99584.28;;;42.91;21.48
66196;BME280;53000;45.182;5.736;2023-07-09T08:56:01;99579.31;;;43.10;20.84
66196;BME280;53000;45.182;5.736;2023-07-09T08:58:31;99584.97;;;43.30;19.62
66196;BME280;53000;45.182;5.736;2023-07-09T09:00:57;99587.53;;;43.39;19.53
66196;BME280;53000;45.182;5.736;2023-07-09T09:06:15;99575.44;;;43.22;19.43
66196;BME280;53000;45.182;5.736;2023-07-09T09:14:37;99562.75;;;42.93;20.18
66196;BME280;53000;45.182;5.736;2023-07-09T09:17:11;99573.69;;;42.91;20.56
66196;BME280;53000;45.182;5.736;2023-07-09T09:19:46;99566.75;;;42.88;20.26
66196;BME280;53000;45.182;5.736;2023-07-09T09:22:16;99560.84;;;43.01;19.97
66196;BME280;53000;45.182;5.736;2023-07-09T09:24:56;99562.31;;;42.91;19.66
66196;BME280;53000;45.182;5.736;2023-07-09T09:27:23;99544.38;;;42.67;19.81
66196;BME280;53000;45.182;5.736;2023-07-09T09:29:49;99552.19;;;42.71;20.81
66196;BME280;53000;45.182;5.736;2023-07-09T09:32:25;99558.97;;;42.85;20.62
66196;BME280;53000;45.182;5.736;2023-07-09T09:34:51;99552.63;;;42.96;20.04
66196;BME280;53000;45.182;5.736;2023-07-09T09:37:30;99548.06;;;42.91;19.55
66196;BME280;53000;45.182;5.736;2023-07-09T09:39:58;99540.09;;;42.77;19.67
66196;BME280;53000;45.182;5.736;2023-07-09T09:42:25;99544.72;;;42.62;19.21
66196;BME280;53000;45.182;5.736;2023-07-09T09:44:53;99541.94;;;42.43;20.16
66196;BME280;53000;45.182;5.736;2023-07-09T09:47:18;99540.34;;;42.26;19.18
66196;BME280;53000;45.182;5.736;2023-07-09T09:49:44;99543.34;;;41.94;18.77
66196;BME280;53000;45.182;5.736;2023-07-09T09:52:14;99528.31;;;41.39;19.52
66196;BME280;53000;45.182;5.736;2023-07-09T09:54:43;99531.25;;;40.91;20.05
66196;BME280;53000;45.182;5.736;2023-07-09T09:57:24;99528.38;;;40.43;20.14
66196;BME280;53000;45.182;5.736;2023-07-09T09:59:50;99518.38;;;40.05;20.88
66196;BME280;53000;45.182;5.736;2023-07-09T10:02:21;99522.31;;;39.60;20.99
66196;BME280;53000;45.182;5.736;2023-07-09T10:04:51;99513.63;;;39.29;21.92
66196;BME280;53000;45.182;5.736;2023-07-09T10:07:34;99507.28;;;39.07;22.28
66196;BME280;53000;45.182;5.736;2023-07-09T10:10:00;99507.50;;;38.90;22.53
66196;BME280;53000;45.182;5.736;2023-07-09T10:17:44;99513.03;;;38.49;23.09
66196;BME280;53000;45.182;5.736;2023-07-09T10:20:24;99510.50;;;38.35;23.01
66196;BME280;53000;45.182;5.736;2023-07-09T10:22:55;99503.72;;;38.15;23.65
66196;BME280;53000;45.182;5.736;2023-07-09T10:25:38;99498.38;;;38.01;23.60
66196;BME280;53000;45.182;5.736;2023-07-09T10:31:22;99502.53;;;37.83;24.14
66196;BME280;53000;45.182;5.736;2023-07-09T10:34:05;99500.06;;;37.81;23.75
66196;BME280;53000;45.182;5.736;2023-07-09T10:39:32;99497.25;;;37.60;24.16
66196;BME280;53000;45.182;5.736;2023-07-09T10:42:00;99500.25;;;37.55;24.45
66196;BME280;53000;45.182;5.736;2023-07-09T10:44:34;99498.13;;;37.52;24.32
66196;BME280;53000;45.182;5.736;2023-07-09T10:47:06;99500.47;;;37.50;24.76
66196;BME280;53000;45.182;5.736;2023-07-09T10:49:38;99484.75;;;37.40;24.68
66196;BME280;53000;45.182;5.736;2023-07-09T10:52:06;99476.97;;;37.37;24.93
66196;BME280;53000;45.182;5.736;2023-07-09T10:57:30;99474.56;;;37.48;25.60
66196;BME280;53000;45.182;5.736;2023-07-09T11:00:00;99475.81;;;37.59;25.46
66196;BME280;53000;45.182;5.736;2023-07-09T11:02:30;99475.41;;;37.70;24.91
66196;BME280;53000;45.182;5.736;2023-07-09T11:04:59;99470.72;;;37.74;25.41
66196;BME280;53000;45.182;5.736;2023-07-09T11:07:32;99471.34;;;37.79;25.64
66196;BME280;53000;45.182;5.736;2023-07-09T11:10:02;99460.03;;;37.79;25.48
66196;BME280;53000;45.182;5.736;2023-07-09T11:12:53;99462.00;;;37.79;25.78
66196;BME280;53000;45.182;5.736;2023-07-09T11:15:25;99451.81;;;37.87;25.89
66196;BME280;53000;45.182;5.736;2023-07-09T11:17:52;99458.63;;;37.85;25.81
66196;BME280;53000;45.182;5.736;2023-07-09T11:30:49;99441.13;;;37.92;26.52
66196;BME280;53000;45.182;5.736;2023-07-09T11:33:44;99440.50;;;37.87;26.73
66196;BME280;53000;45.182;5.736;2023-07-09T11:36:24;99435.09;;;37.81;26.49
66196;BME280;53000;45.182;5.736;2023-07-09T11:38:50;99429.44;;;37.81;26.70
66196;BME280;53000;45.182;5.736;2023-07-09T11:49:47;99429.84;;;38.04;26.42
66196;BME280;53000;45.182;5.736;2023-07-09T11:52:14;99421.50;;;38.08;26.37
66196;BME280;53000;45.182;5.736;2023-07-09T11:54:43;99426.81;;;38.10;26.49
66196;BME280;53000;45.182;5.736;2023-07-09T11:57:12;99428.94;;;38.13;26.52
66196;BME280;53000;45.182;5.736;2023-07-09T11:59:41;99417.03;;;38.19;26.47
66196;BME280;53000;45.182;5.736;2023-07-09T12:02:18;99410.59;;;38.31;26.50
66196;BME280;53000;45.182;5.736;2023-07-09T12:04:48;99406.91;;;38.31;26.29
66196;BME280;53000;45.182;5.736;2023-07-09T12:07:14;99406.94;;;38.43;26.61
66196;BME280;53000;45.182;5.736;2023-07-09T12:09:46;99392.22;;;38.62;26.15
66196;BME280;53000;45.182;5.736;2023-07-09T12:12:18;99389.97;;;38.80;25.92
66196;BME280;53000;45.182;5.736;2023-07-09T12:14:44;99396.91;;;38.95;26.23
66196;BME280;53000;45.182;5.736;2023-07-09T12:17:09;99397.25;;;39.05;26.04
66196;BME280;53000;45.182;5.736;2023-07-09T12:19:34;99390.75;;;39.17;25.22
66196;BME280;53000;45.182;5.736;2023-07-09T12:22:00;99386.22;;;39.29;25.56
66196;BME280;53000;45.182;5.736;2023-07-09T12:24:26;99373.19;;;39.40;25.83
66196;BME280;53000;45.182;5.736;2023-07-09T12:26:58;99379.56;;;39.49;25.92
66196;BME280;53000;45.182;5.736;2023-07-09T12:29:30;99382.94;;;39.55;25.31
66196;BME280;53000;45.182;5.736;2023-07-09T12:31:56;99376.19;;;39.59;25.39
66196;BME280;53000;45.182;5.736;2023-07-09T12:34:22;99372.06;;;39.57;24.94
66196;BME280;53000;45.182;5.736;2023-07-09T12:36:49;99381.19;;;39.50;25.47
66196;BME280;53000;45.182;5.736;2023-07-09T12:39:20;99364.81;;;39.43;25.46
66196;BME280;53000;45.182;5.736;2023-07-09T12:41:48;99370.84;;;39.42;25.89
66196;BME280;53000;45.182;5.736;2023-07-09T12:44:17;99370.13;;;39.45;25.82
66196;BME280;53000;45.182;5.736;2023-07-09T12:46:45;99365.00;;;39.51;25.38
66196;BME280;53000;45.182;5.736;2023-07-09T12:49:21;99363.22;;;39.58;24.90
66196;BME280;53000;45.182;5.736;2023-07-09T12:51:47;99362.94;;;39.63;24.59
66196;BME280;53000;45.182;5.736;2023-07-09T12:54:15;99358.66;;;39.70;24.57
66196;BME280;53000;45.182;5.736;2023-07-09T12:56:41;99357.31;;;39.79;24.57
66196;BME280;53000;45.182;5.736;2023-07-09T12:59:35;99355.50;;;39.87;24.63
66196;BME280;53000;45.182;5.736;2023-07-09T13:04:40;99359.06;;;40.00;24.77
66196;BME280;53000;45.182;5.736;2023-07-09T13:07:26;99351.22;;;40.09;25.00
66196;BME280;53000;45.182;5.736;2023-07-09T13:09:55;99356.59;;;40.14;24.65
66196;BME280;53000;45.182;5.736;2023-07-09T13:12:28;99344.63;;;40.21;25.01
66196;BME280;53000;45.182;5.736;2023-07-09T13:14:56;99352.03;;;40.25;24.68
66196;BME280;53000;45.182;5.736;2023-07-09T13:17:21;99343.63;;;40.29;24.91
66196;BME280;53000;45.182;5.736;2023-07-09T13:19:47;99348.50;;;40.29;24.99
66196;BME280;53000;45.182;5.736;2023-07-09T13:22:15;99348.81;;;40.27;24.64
66196;BME280;53000;45.182;5.736;2023-07-09T13:24:41;99343.50;;;40.25;24.98
66196;BME280;53000;45.182;5.736;2023-07-09T13:27:11;99336.94;;;40.21;24.92
66196;BME280;53000;45.182;5.736;2023-07-09T13:29:37;99328.97;;;40.27;25.26
66196;BME280;53000;45.182;5.736;2023-07-09T13:32:09;99334.03;;;40.34;25.00
66196;BME280;53000;45.182;5.736;2023-07-09T13:34:35;99326.41;;;40.38;25.29
66196;BME280;53000;45.182;5.736;2023-07-09T13:37:00;99330.16;;;40.42;25.25
66196;BME280;53000;45.182;5.736;2023-07-09T13:39:26;99324.19;;;40.47;25.42
66196;BME280;53000;45.182;5.736;2023-07-09T13:41:52;99326.53;;;40.41;25.29
66196;BME280;53000;45.182;5.736;2023-07-09T13:44:24;99320.59;;;39.99;25.88
66196;BME280;53000;45.182;5.736;2023-07-09T13:46:50;99321.00;;;39.53;26.76
66196;BME280;53000;45.182;5.736;2023-07-09T13:49:18;99320.16;;;39.24;26.35
66196;BME280;53000;45.182;5.736;2023-07-09T13:51:47;99323.81;;;38.97;27.15